Eviapetrol II — SY6858 — position and weather

sailwx.info

Track history (hours):
 
Tides and Currents Weather Stations Pressure Air Temp Water Temp Dewpoint Dewpoint Depression Visibility Wind Speed Wind Dir Waves Ship Positions

Eviapetrol II

Last reported at 2014-Oct-31 07:32 UTC. Time now 2014-Nov-01 03:26 UTC.
Position N 37°54' E 023°06'.

Length 78 m; draft 4.7 m.

Type: Tanker. MMSI: 240493000.

Date/timePositionNaut miles runAvg speedWind from/ knotsBaromVisibWave heightAir tempDewpointWater temp
2014-Oct-31 07:32N 37°54' E 023°06'10 9.9
2014-Oct-31 06:33N 37°56' E 023°18'8 7.8
2014-Oct-31 05:33N 38°00' E 023°27'6 6.4
2014-Oct-31 04:33N 38°02' E 023°34'1 0.1
2014-Oct-30 15:21N 38°02' E 023°36'3 3.4
2014-Oct-30 14:34N 38°01' E 023°32'8 7.6
2014-Oct-30 13:34N 37°54' E 023°38'7 7.4
2014-Oct-30 12:34N 37°48' E 023°42'22 9.1
2014-Oct-30 10:07N 37°38' E 024°07'711.0
2014-Oct-30 09:30N 37°42' E 024°14'1511.0
2014-Oct-30 08:10N 37°52' E 024°27'1910.4
2014-Oct-30 06:19N 38°05' E 024°46'90 2.1
2014-Oct-28 12:20N 37°57' E 026°39'53 1.6
2014-Oct-27 02:17N 37°36' E 025°38'6 8.0
2014-Oct-27 01:33N 37°34' E 025°31'8 7.8
2014-Oct-27 00:32N 37°32' E 025°21'7 7.5
2014-Oct-26 23:34N 37°30' E 025°12'9 8.8
2014-Oct-26 22:31N 37°31' E 025°01'9 8.9
2014-Oct-26 21:27N 37°32' E 024°49'8 8.3
2014-Oct-26 20:33N 37°32' E 024°39'8 7.2
2014-Oct-26 19:27N 37°30' E 024°29'9 7.1
2014-Oct-26 18:11N 37°30' E 024°18'5 8.4
2014-Oct-26 17:34N 37°31' E 024°12'18 8.8
2014-Oct-26 15:33N 37°37' E 023°50'9 9.2
2014-Oct-26 14:34N 37°42' E 023°41'1010.4
2014-Oct-26 13:34N 37°52' E 023°36'8 8.4
2014-Oct-26 12:33N 37°60' E 023°33'2 1.7
2014-Oct-26 11:33N 38°02' E 023°33'0 0.0
2014-Oct-26 10:05N 38°02' E 023°33'0 0.0
2014-Oct-26 09:33N 38°02' E 023°33'0 0.0
2014-Oct-26 07:24N 38°02' E 023°33'0 0.1
2014-Oct-26 06:20N 38°01' E 023°33'2 2.9
2014-Oct-26 05:28N 38°02' E 023°36'0 0.0
2014-Oct-26 04:33N 38°02' E 023°36'0 0.0
2014-Oct-26 03:33N 38°02' E 023°36'0 0.0
2014-Oct-26 02:33N 38°02' E 023°36'0 0.0
2014-Oct-26 01:25N 38°02' E 023°36'0 0.0
2014-Oct-26 00:33N 38°02' E 023°36'0 0.0
2014-Oct-25 23:33N 38°02' E 023°36'0 0.0
2014-Oct-25 22:33N 38°02' E 023°36'0 0.0
2014-Oct-25 21:33N 38°02' E 023°36'0 0.0
2014-Oct-25 20:33N 38°02' E 023°36'0 0.0
2014-Oct-25 19:33N 38°02' E 023°36'0 0.0
2014-Oct-25 18:12N 38°02' E 023°36'0 0.0
2014-Oct-25 17:33N 38°02' E 023°36'1 0.9
2014-Oct-25 16:30N 38°02' E 023°34'4 4.7
2014-Oct-25 15:33N 37°58' E 023°33'5 5.0
2014-Oct-25 14:33N 37°54' E 023°38'1010.0
2014-Oct-25 13:33N 37°45' E 023°44'10 9.2
2014-Oct-25 12:30N 37°39' E 023°53'13 9.3
2014-Oct-25 11:04N 37°40' E 024°10'7 9.8
2014-Oct-25 10:22N 37°44' E 024°16'  
2014-Oct-21 07:34N 38°09' E 026°16'  
Track history (hours):
 
Tides and Currents Weather Stations Pressure Air Temp Water Temp Dewpoint Dewpoint Depression Visibility Wind Speed Wind Dir Waves Ship Positions

Eviapetrol II

Last reported at 2014-Oct-31 07:32 UTC. Time now 2014-Nov-01 03:26 UTC.
Position N 37°54' E 023°06'.

Length 78 m; draft 4.7 m.

Type: Tanker. MMSI: 240493000.

Date/timePositionNaut miles runAvg speedWind from/ knotsBaromVisibWave heightAir tempDewpointWater temp
2014-Oct-31 07:32N 37°54' E 023°06'10 9.9
2014-Oct-31 06:33N 37°56' E 023°18'8 7.8
2014-Oct-31 05:33N 38°00' E 023°27'6 6.4
2014-Oct-31 04:33N 38°02' E 023°34'1 0.1
2014-Oct-30 15:21N 38°02' E 023°36'3 3.4
2014-Oct-30 14:34N 38°01' E 023°32'8 7.6
2014-Oct-30 13:34N 37°54' E 023°38'7 7.4
2014-Oct-30 12:34N 37°48' E 023°42'22 9.1
2014-Oct-30 10:07N 37°38' E 024°07'711.0
2014-Oct-30 09:30N 37°42' E 024°14'1511.0
2014-Oct-30 08:10N 37°52' E 024°27'1910.4
2014-Oct-30 06:19N 38°05' E 024°46'90 2.1
2014-Oct-28 12:20N 37°57' E 026°39'53 1.6
2014-Oct-27 02:17N 37°36' E 025°38'6 8.0
2014-Oct-27 01:33N 37°34' E 025°31'8 7.8
2014-Oct-27 00:32N 37°32' E 025°21'7 7.5
2014-Oct-26 23:34N 37°30' E 025°12'9 8.8
2014-Oct-26 22:31N 37°31' E 025°01'9 8.9
2014-Oct-26 21:27N 37°32' E 024°49'8 8.3
2014-Oct-26 20:33N 37°32' E 024°39'8 7.2
2014-Oct-26 19:27N 37°30' E 024°29'9 7.1
2014-Oct-26 18:11N 37°30' E 024°18'5 8.4
2014-Oct-26 17:34N 37°31' E 024°12'18 8.8
2014-Oct-26 15:33N 37°37' E 023°50'9 9.2
2014-Oct-26 14:34N 37°42' E 023°41'1010.4
2014-Oct-26 13:34N 37°52' E 023°36'8 8.4
2014-Oct-26 12:33N 37°60' E 023°33'2 1.7
2014-Oct-26 11:33N 38°02' E 023°33'0 0.0
2014-Oct-26 10:05N 38°02' E 023°33'0 0.0
2014-Oct-26 09:33N 38°02' E 023°33'0 0.0
2014-Oct-26 07:24N 38°02' E 023°33'0 0.1
2014-Oct-26 06:20N 38°01' E 023°33'2 2.9
2014-Oct-26 05:28N 38°02' E 023°36'0 0.0
2014-Oct-26 04:33N 38°02' E 023°36'0 0.0
2014-Oct-26 03:33N 38°02' E 023°36'0 0.0
2014-Oct-26 02:33N 38°02' E 023°36'0 0.0
2014-Oct-26 01:25N 38°02' E 023°36'0 0.0
2014-Oct-26 00:33N 38°02' E 023°36'0 0.0
2014-Oct-25 23:33N 38°02' E 023°36'0 0.0
2014-Oct-25 22:33N 38°02' E 023°36'0 0.0
2014-Oct-25 21:33N 38°02' E 023°36'0 0.0
2014-Oct-25 20:33N 38°02' E 023°36'0 0.0
2014-Oct-25 19:33N 38°02' E 023°36'0 0.0
2014-Oct-25 18:12N 38°02' E 023°36'0 0.0
2014-Oct-25 17:33N 38°02' E 023°36'1 0.9
2014-Oct-25 16:30N 38°02' E 023°34'4 4.7
2014-Oct-25 15:33N 37°58' E 023°33'5 5.0
2014-Oct-25 14:33N 37°54' E 023°38'1010.0
2014-Oct-25 13:33N 37°45' E 023°44'10 9.2
2014-Oct-25 12:30N 37°39' E 023°53'13 9.3
2014-Oct-25 11:04N 37°40' E 024°10'7 9.8
2014-Oct-25 10:22N 37°44' E 024°16'  
2014-Oct-21 07:34N 38°09' E 026°16'  

Dump ship's entire track history